createdAt,value
2022-08-30T00:02:28.592Z,73.92
2022-08-30T00:04:57.780Z,74.01
2022-08-30T00:07:26.202Z,74.01
2022-08-30T00:09:55.959Z,74.02
2022-08-30T00:12:24.713Z,73.98
2022-08-30T00:14:53.103Z,73.97
2022-08-30T00:17:21.623Z,74.43
2022-08-30T00:19:49.847Z,74.44
2022-08-30T00:22:18.099Z,74.39
2022-08-30T00:24:46.599Z,74.22
2022-08-30T00:27:16.188Z,74.33
2022-08-30T00:29:44.605Z,74.36
2022-08-30T00:32:13.194Z,74.35
2022-08-30T00:34:41.423Z,74.30
2022-08-30T00:37:10.153Z,74.67
2022-08-30T00:39:38.410Z,74.70
2022-08-30T00:42:07.450Z,74.78
2022-08-30T00:44:37.308Z,74.76
2022-08-30T00:47:05.817Z,74.89
2022-08-30T00:49:36.065Z,74.69
2022-08-30T00:52:06.468Z,74.86
2022-08-30T00:54:37.015Z,74.73
2022-08-30T00:57:06.596Z,74.93
2022-08-30T00:59:36.586Z,75.25
2022-08-30T01:02:07.181Z,75.20
2022-08-30T01:04:36.155Z,74.96
2022-08-30T01:07:04.630Z,75.42
2022-08-30T01:09:32.911Z,75.43
2022-08-30T01:12:01.407Z,75.32
2022-08-30T01:14:31.635Z,75.18
2022-08-30T01:17:03.106Z,75.10
2022-08-30T01:19:39.679Z,75.13
2022-08-30T01:22:21.324Z,75.47
2022-08-30T01:24:52.679Z,75.55
2022-08-30T01:27:21.448Z,75.64
2022-08-30T01:29:50.901Z,75.74
2022-08-30T01:32:21.370Z,75.92
2022-08-30T01:34:50.007Z,76.19
2022-08-30T01:37:22.324Z,76.08
2022-08-30T01:39:52.068Z,76.08
2022-08-30T01:42:20.562Z,75.86
2022-08-30T01:44:49.658Z,75.99
2022-08-30T01:47:19.112Z,76.09
2022-08-30T01:49:48.350Z,76.18
2022-08-30T01:52:17.886Z,76.10
2022-08-30T01:54:47.516Z,76.30
2022-08-30T01:57:22.633Z,76.17
2022-08-30T01:59:51.567Z,76.15
2022-08-30T02:02:25.900Z,76.11
2022-08-30T02:04:55.422Z,76.49
2022-08-30T02:07:24.858Z,76.19
2022-08-30T02:09:54.384Z,76.47
2022-08-30T02:12:24.124Z,76.50
2022-08-30T02:14:52.386Z,76.17
2022-08-30T02:17:20.782Z,76.11
2022-08-30T02:19:49.070Z,76.23
2022-08-30T02:22:17.523Z,75.96
2022-08-30T02:24:45.836Z,76.13
2022-08-30T02:27:14.176Z,75.81
2022-08-30T02:29:43.838Z,75.71
2022-08-30T02:32:12.061Z,75.87
2022-08-30T02:34:40.386Z,75.87
2022-08-30T02:37:09.091Z,76.01
2022-08-30T02:39:37.497Z,75.99
2022-08-30T02:42:06.512Z,76.31
2022-08-30T02:44:34.763Z,76.30
2022-08-30T02:47:04.909Z,76.14
2022-08-30T02:49:34.098Z,76.17
2022-08-30T02:52:04.470Z,76.10
2022-08-30T02:54:33.541Z,76.12
2022-08-30T02:57:04.922Z,75.80
2022-08-30T02:59:34.146Z,75.85
2022-08-30T03:02:03.774Z,75.52
2022-08-30T03:04:32.029Z,75.55
2022-08-30T03:07:00.281Z,75.45
2022-08-30T03:09:28.674Z,75.55
2022-08-30T03:11:56.892Z,75.65
2022-08-30T03:14:25.499Z,75.80
2022-08-30T03:16:53.768Z,75.79
2022-08-30T03:19:24.062Z,76.02
2022-08-30T03:21:52.611Z,75.91
2022-08-30T03:24:21.157Z,75.89
2022-08-30T03:26:49.434Z,75.91
2022-08-30T03:29:17.745Z,75.74
2022-08-30T03:31:52.821Z,76.00
2022-08-30T03:34:24.698Z,75.94
2022-08-30T03:36:54.178Z,76.12
2022-08-30T03:39:27.138Z,76.27
2022-08-30T03:41:55.492Z,76.25
2022-08-30T03:44:23.736Z,76.05
2022-08-30T03:46:52.642Z,76.26
2022-08-30T03:49:24.425Z,76.36
2022-08-30T03:51:52.849Z,76.34
2022-08-30T03:54:21.194Z,76.56
2022-08-30T03:56:49.800Z,76.37
2022-08-30T03:59:18.203Z,76.48
2022-08-30T04:01:47.856Z,76.49
2022-08-30T04:04:20.756Z,76.44
2022-08-30T04:06:52.135Z,76.53
2022-08-30T04:09:21.018Z,76.51
2022-08-30T04:11:49.298Z,76.62
2022-08-30T04:14:18.382Z,76.76
2022-08-30T04:16:46.830Z,76.52
2022-08-30T04:19:15.143Z,76.54
2022-08-30T04:21:43.608Z,76.55
2022-08-30T04:24:13.524Z,76.73
2022-08-30T04:26:41.894Z,76.71
2022-08-30T04:29:11.777Z,76.98
2022-08-30T04:31:40.165Z,76.81
2022-08-30T04:34:10.452Z,76.84
2022-08-30T04:36:38.873Z,76.87
2022-08-30T04:39:07.717Z,76.89
2022-08-30T04:41:40.897Z,77.00
2022-08-30T04:44:09.265Z,77.15
2022-08-30T04:46:44.577Z,77.14
2022-08-30T04:49:13.120Z,77.09
2022-08-30T04:51:41.469Z,77.23
2022-08-30T04:54:09.730Z,77.30
2022-08-30T04:56:39.403Z,77.38
2022-08-30T04:59:07.709Z,77.72
2022-08-30T05:01:44.513Z,77.68
2022-08-30T05:04:14.941Z,77.75
2022-08-30T05:06:43.842Z,77.68
2022-08-30T05:09:12.461Z,77.96
2022-08-30T05:11:43.311Z,77.93
2022-08-30T05:14:12.141Z,77.92
2022-08-30T05:16:41.511Z,77.82
2022-08-30T05:19:10.257Z,77.53
2022-08-30T05:21:40.623Z,77.43
2022-08-30T05:24:09.666Z,77.22
2022-08-30T05:26:41.224Z,77.16
2022-08-30T05:29:09.622Z,77.17
2022-08-30T05:31:38.379Z,77.15
2022-08-30T05:34:06.903Z,77.13
2022-08-30T05:36:37.910Z,77.05
2022-08-30T05:39:07.566Z,76.90
2022-08-30T05:41:39.123Z,76.55
2022-08-30T05:44:10.553Z,76.49
2022-08-30T05:46:39.614Z,76.53
2022-08-30T05:49:09.679Z,76.22
2022-08-30T05:51:43.007Z,76.15
2022-08-30T05:54:12.853Z,75.86
2022-08-30T05:56:44.472Z,75.30
2022-08-30T05:59:15.876Z,75.22
2022-08-30T06:01:47.185Z,75.06
2022-08-30T06:04:15.742Z,74.76
2022-08-30T06:06:45.255Z,74.37
2022-08-30T06:09:15.098Z,74.42
2022-08-30T06:11:43.823Z,73.73
2022-08-30T06:14:13.930Z,72.92
2022-08-30T06:16:45.647Z,72.42
2022-08-30T06:19:15.650Z,71.58
2022-08-30T06:21:45.662Z,71.19
2022-08-30T06:24:14.039Z,71.29
2022-08-30T06:26:47.778Z,70.87
2022-08-30T06:29:21.676Z,70.49
2022-08-30T06:31:50.487Z,69.83
2022-08-30T06:34:19.006Z,69.66
2022-08-30T06:36:47.411Z,68.87
2022-08-30T06:39:15.880Z,68.68
2022-08-30T06:41:47.442Z,68.21
2022-08-30T06:44:35.766Z,68.19
2022-08-30T06:47:04.202Z,67.88
2022-08-30T06:49:32.544Z,67.59
2022-08-30T06:52:00.811Z,67.29
2022-08-30T06:54:29.428Z,66.84
2022-08-30T06:56:58.890Z,66.81
2022-08-30T06:59:28.385Z,66.64
2022-08-30T07:01:58.362Z,65.63
2022-08-30T07:04:27.671Z,66.04
2022-08-30T07:06:56.354Z,65.25
2022-08-30T07:09:24.873Z,64.83
2022-08-30T07:11:54.275Z,65.16
2022-08-30T07:14:23.771Z,65.04
2022-08-30T07:16:52.310Z,65.58
2022-08-30T07:19:22.660Z,65.16
2022-08-30T07:21:51.380Z,64.33
2022-08-30T07:24:21.678Z,67.20
2022-08-30T07:26:52.421Z,66.50
2022-08-30T07:29:21.765Z,65.76
2022-08-30T07:31:50.355Z,65.49
2022-08-30T07:34:20.466Z,65.57
2022-08-30T07:36:52.127Z,64.70
2022-08-30T07:39:20.983Z,63.97
2022-08-30T07:41:50.780Z,62.91
2022-08-30T07:44:19.360Z,63.23
2022-08-30T07:46:51.613Z,63.34
2022-08-30T07:49:20.093Z,63.24
2022-08-30T07:51:48.917Z,62.72
2022-08-30T07:54:18.549Z,63.99
2022-08-30T07:56:46.842Z,63.39
2022-08-30T07:59:15.188Z,62.88
2022-08-30T08:01:43.526Z,61.08
2022-08-30T08:04:12.395Z,59.48
2022-08-30T08:06:42.141Z,59.19
2022-08-30T08:09:10.798Z,60.94
2022-08-30T08:11:41.391Z,61.82
2022-08-30T08:14:10.171Z,62.60
2022-08-30T08:16:39.308Z,60.26
2022-08-30T08:19:09.230Z,60.86
2022-08-30T08:21:38.520Z,60.57
2022-08-30T08:24:07.196Z,62.47
2022-08-30T08:26:36.656Z,62.88
2022-08-30T08:29:08.185Z,62.11
2022-08-30T08:31:37.021Z,61.31
2022-08-30T08:34:06.672Z,62.02
2022-08-30T08:36:36.825Z,60.71
2022-08-30T08:39:08.210Z,60.34
2022-08-30T08:41:51.437Z,59.68
2022-08-30T08:44:37.162Z,60.64
2022-08-30T08:47:14.379Z,59.86
2022-08-30T08:49:46.630Z,58.55
2022-08-30T08:52:38.781Z,57.27
2022-08-30T08:55:12.355Z,55.42
2022-08-30T08:57:42.024Z,54.96
2022-08-30T09:00:15.155Z,55.28
2022-08-30T09:02:47.094Z,53.64
2022-08-30T09:05:20.419Z,52.91
2022-08-30T09:07:53.658Z,52.08
2022-08-30T09:10:40.549Z,52.17
2022-08-30T09:13:13.517Z,52.01
2022-08-30T09:15:43.741Z,51.47
2022-08-30T09:18:19.141Z,52.39
2022-08-30T09:20:51.631Z,56.99
2022-08-30T09:23:29.975Z,54.42
2022-08-30T09:26:01.362Z,53.42
2022-08-30T09:28:33.698Z,53.42
2022-08-30T09:31:12.224Z,52.26
2022-08-30T09:33:40.907Z,51.38
2022-08-30T09:36:20.735Z,50.71
2022-08-30T09:39:00.927Z,50.41
2022-08-30T09:41:38.416Z,49.92
2022-08-30T09:44:12.076Z,50.08
2022-08-30T09:46:52.085Z,50.51
2022-08-30T09:49:40.085Z,49.35
2022-08-30T09:52:34.991Z,49.50
2022-08-30T09:55:20.815Z,48.17
2022-08-30T09:57:58.361Z,48.75
2022-08-30T10:00:31.554Z,48.55
2022-08-30T10:03:30.202Z,47.94
2022-08-30T10:06:14.217Z,47.23
2022-08-30T10:09:02.292Z,48.23
2022-08-30T10:11:43.660Z,47.79
2022-08-30T10:14:46.534Z,49.25
2022-08-30T10:17:27.552Z,49.94
2022-08-30T10:20:13.559Z,51.31
2022-08-30T10:22:47.558Z,52.10
2022-08-30T10:25:24.364Z,51.25
2022-08-30T10:28:01.563Z,48.90
2022-08-30T10:30:35.619Z,49.26
2022-08-30T10:33:10.016Z,47.73
2022-08-30T10:35:45.676Z,46.57
2022-08-30T10:38:23.384Z,45.94
2022-08-30T10:41:17.218Z,45.58
2022-08-30T10:43:55.847Z,46.77
2022-08-30T10:46:34.738Z,45.40
2022-08-30T10:49:06.543Z,47.69
2022-08-30T10:51:43.344Z,45.76
2022-08-30T10:54:18.716Z,45.78
2022-08-30T10:56:52.197Z,45.37
2022-08-30T10:59:22.168Z,43.94
2022-08-30T11:02:14.425Z,42.28
2022-08-30T11:05:21.878Z,43.85
2022-08-30T11:08:02.591Z,43.47
2022-08-30T11:10:49.687Z,42.94
2022-08-30T11:13:22.756Z,42.80
2022-08-30T11:16:00.993Z,44.13
2022-08-30T11:18:32.113Z,44.28
2022-08-30T11:21:21.779Z,43.65
2022-08-30T11:24:11.495Z,42.73
2022-08-30T11:27:00.827Z,43.95
2022-08-30T11:29:40.137Z,43.77
2022-08-30T11:32:46.116Z,42.12
2022-08-30T11:35:48.123Z,41.85
2022-08-30T11:39:06.202Z,41.91
2022-08-30T11:41:42.048Z,42.47
2022-08-30T11:44:28.803Z,42.48
2022-08-30T11:46:58.690Z,41.27
2022-08-30T11:49:47.093Z,40.68
2022-08-30T11:52:48.844Z,42.36
2022-08-30T11:55:45.454Z,41.21
2022-08-30T11:58:29.463Z,40.17
2022-08-30T12:01:49.675Z,39.89
2022-08-30T12:04:26.743Z,39.75
2022-08-30T12:06:59.844Z,40.37
2022-08-30T12:10:05.753Z,40.89
2022-08-30T12:12:53.781Z,41.06
2022-08-30T12:15:58.415Z,40.43
2022-08-30T12:18:43.182Z,40.55
2022-08-30T12:21:29.436Z,41.03
2022-08-30T12:24:07.688Z,41.85
2022-08-30T12:26:41.143Z,41.83
2022-08-30T12:29:19.909Z,41.95
2022-08-30T12:31:54.868Z,42.66
2022-08-30T12:34:29.873Z,42.96
2022-08-30T12:37:03.062Z,43.33
2022-08-30T12:39:35.961Z,42.44
2022-08-30T12:42:20.918Z,42.06
2022-08-30T12:44:52.149Z,41.53
2022-08-30T12:47:26.614Z,42.06
2022-08-30T12:49:57.359Z,42.26
2022-08-30T12:52:35.599Z,41.63
2022-08-30T12:55:17.393Z,40.88
2022-08-30T12:58:01.321Z,41.66
2022-08-30T13:00:34.079Z,42.12
2022-08-30T13:03:16.344Z,41.74
2022-08-30T13:05:52.899Z,41.94
2022-08-30T13:08:25.335Z,42.20
2022-08-30T13:11:05.798Z,42.67
2022-08-30T13:13:52.688Z,43.76
2022-08-30T13:16:29.288Z,43.18
2022-08-30T13:19:27.939Z,44.10
2022-08-30T13:21:58.430Z,44.08
2022-08-30T13:24:27.809Z,43.73
2022-08-30T13:27:00.199Z,43.38
2022-08-30T13:29:31.986Z,43.54
2022-08-30T13:32:00.358Z,43.97
2022-08-30T13:34:32.974Z,43.05
2022-08-30T13:37:02.087Z,42.10
2022-08-30T13:39:30.422Z,42.47
2022-08-30T13:42:31.704Z,42.88
2022-08-30T13:44:48.419Z,42.70
2022-08-30T13:47:34.731Z,41.85
2022-08-30T13:50:04.538Z,41.90
2022-08-30T13:52:33.259Z,42.21
2022-08-30T13:55:03.537Z,41.02
2022-08-30T14:00:24.940Z,42.77
2022-08-30T14:02:56.083Z,42.63
2022-08-30T14:05:48.219Z,42.40
2022-08-30T14:11:11.342Z,42.41
2022-08-30T14:16:34.024Z,42.90
2022-08-30T14:19:02.834Z,42.67
2022-08-30T14:21:31.331Z,42.57
2022-08-30T14:24:00.914Z,42.91
2022-08-30T14:26:35.417Z,43.00
2022-08-30T14:29:04.709Z,42.92
2022-08-30T14:31:34.439Z,42.72
2022-08-30T14:34:04.408Z,43.19
2022-08-30T14:36:35.168Z,43.44
2022-08-30T14:39:06.265Z,43.78
2022-08-30T14:41:43.672Z,43.70
2022-08-30T14:44:12.927Z,44.09
2022-08-30T14:46:42.733Z,43.16
2022-08-30T14:49:12.154Z,43.87
2022-08-30T14:51:41.414Z,43.52
2022-08-30T14:54:10.798Z,43.31
2022-08-30T14:56:40.343Z,43.64
2022-08-30T14:59:09.429Z,43.83
2022-08-30T15:01:42.471Z,43.94
2022-08-30T15:04:12.340Z,43.72
2022-08-30T15:06:43.378Z,43.58
2022-08-30T15:09:15.952Z,43.51
2022-08-30T15:11:44.570Z,43.23
2022-08-30T15:14:16.605Z,42.96
2022-08-30T15:16:46.567Z,42.98
2022-08-30T15:19:14.934Z,43.45
2022-08-30T15:21:47.624Z,43.21
2022-08-30T15:24:29.604Z,43.37
2022-08-30T15:26:59.773Z,42.80
2022-08-30T15:29:30.673Z,42.83
2022-08-30T15:32:03.606Z,43.05
2022-08-30T15:34:34.053Z,42.72
2022-08-30T15:37:02.412Z,42.29
2022-08-30T15:39:32.144Z,42.07
2022-08-30T15:42:01.450Z,42.40
2022-08-30T15:44:31.142Z,42.08
2022-08-30T15:47:01.426Z,42.04
2022-08-30T15:49:30.067Z,42.50
2022-08-30T15:52:02.480Z,42.08
2022-08-30T15:54:31.139Z,42.04
2022-08-30T15:57:00.100Z,41.78
2022-08-30T15:59:29.330Z,42.11
2022-08-30T16:01:58.052Z,42.12
2022-08-30T16:04:27.789Z,42.07
2022-08-30T16:06:56.457Z,41.87
2022-08-30T16:09:26.492Z,41.83
2022-08-30T16:11:58.451Z,41.75
2022-08-30T16:14:27.615Z,41.82
2022-08-30T16:16:56.248Z,41.57
2022-08-30T16:19:25.431Z,41.94
2022-08-30T16:21:55.122Z,41.56
2022-08-30T16:24:23.498Z,41.26
2022-08-30T16:26:52.134Z,41.40
2022-08-30T16:29:20.720Z,42.29
2022-08-30T16:31:49.675Z,41.80
2022-08-30T16:34:20.398Z,41.19
2022-08-30T16:36:49.287Z,41.32
2022-08-30T16:39:18.917Z,41.71
2022-08-30T16:41:49.310Z,41.45
2022-08-30T16:44:18.663Z,41.15
2022-08-30T16:46:53.079Z,41.70
2022-08-30T16:49:23.046Z,41.37
2022-08-30T16:51:52.933Z,41.84
2022-08-30T16:54:23.713Z,41.73
2022-08-30T16:56:52.430Z,41.70
2022-08-30T16:59:20.892Z,41.70
2022-08-30T17:01:50.143Z,42.03
2022-08-30T17:04:19.740Z,42.04
2022-08-30T17:06:49.680Z,42.05
2022-08-30T17:09:19.402Z,41.97
2022-08-30T17:11:50.175Z,41.92
2022-08-30T17:17:07.755Z,42.30
2022-08-30T17:19:41.260Z,42.17
2022-08-30T17:22:11.793Z,41.99
2022-08-30T17:24:40.475Z,41.68
2022-08-30T17:27:10.172Z,42.24
2022-08-30T17:29:38.481Z,42.13
2022-08-30T17:32:07.245Z,41.67
2022-08-30T17:34:37.249Z,41.73
2022-08-30T17:37:05.644Z,42.10
2022-08-30T17:39:33.994Z,41.78
2022-08-30T17:42:02.317Z,42.61
2022-08-30T17:44:36.493Z,42.06
2022-08-30T17:47:05.461Z,42.06
2022-08-30T17:49:34.270Z,41.95
2022-08-30T17:52:04.307Z,42.67
2022-08-30T17:54:34.727Z,42.55
2022-08-30T17:57:10.725Z,42.56
2022-08-30T17:59:41.523Z,42.68
2022-08-30T18:02:11.093Z,42.77
2022-08-30T18:04:41.785Z,42.82
2022-08-30T18:07:12.007Z,42.77
2022-08-30T18:09:41.301Z,42.47
2022-08-30T18:12:10.034Z,42.57
2022-08-30T18:14:39.957Z,42.35
2022-08-30T18:17:09.112Z,43.03
2022-08-30T18:19:46.630Z,43.04
2022-08-30T18:22:16.414Z,43.08
2022-08-30T18:24:45.166Z,42.93
2022-08-30T18:27:13.558Z,43.25
2022-08-30T18:29:43.494Z,43.05
2022-08-30T18:32:11.956Z,43.46
2022-08-30T18:34:42.678Z,43.42
2022-08-30T18:37:14.371Z,43.41
2022-08-30T18:39:45.449Z,43.50
2022-08-30T18:42:15.846Z,43.74
2022-08-30T18:44:45.637Z,43.80
2022-08-30T18:47:13.942Z,43.92
2022-08-30T18:49:42.866Z,43.75
2022-08-30T18:52:12.498Z,43.88
2022-08-30T18:54:42.776Z,44.54
2022-08-30T18:57:14.011Z,44.78
2022-08-30T18:59:42.714Z,45.58
2022-08-30T19:02:16.617Z,46.10
2022-08-30T19:04:47.130Z,46.95
2022-08-30T19:07:18.006Z,47.61
2022-08-30T19:09:46.803Z,47.92
2022-08-30T19:12:15.986Z,49.03
2022-08-30T19:14:44.474Z,49.24
2022-08-30T19:17:14.918Z,50.46
2022-08-30T19:19:46.212Z,50.25
2022-08-30T19:22:19.238Z,50.81
2022-08-30T19:24:48.140Z,50.65
2022-08-30T19:27:21.447Z,51.43
2022-08-30T19:30:08.760Z,51.51
2022-08-30T19:32:38.585Z,52.14
2022-08-30T19:35:08.273Z,52.03
2022-08-30T19:37:37.468Z,52.67
2022-08-30T19:40:09.302Z,52.85
2022-08-30T19:42:45.782Z,52.66
2022-08-30T19:45:18.707Z,53.32
2022-08-30T19:47:53.264Z,53.64
2022-08-30T19:50:22.743Z,53.63
2022-08-30T19:52:55.009Z,53.73
2022-08-30T19:55:28.493Z,53.92
2022-08-30T19:57:58.929Z,54.24
2022-08-30T20:00:30.695Z,54.18
2022-08-30T20:03:01.936Z,54.70
2022-08-30T20:05:30.850Z,54.40
2022-08-30T20:07:59.338Z,54.72
2022-08-30T20:10:28.336Z,54.68
2022-08-30T20:12:56.863Z,55.21
2022-08-30T20:15:26.228Z,55.31
2022-08-30T20:18:13.542Z,55.39
2022-08-30T20:20:49.373Z,55.65
2022-08-30T20:23:19.771Z,56.05
2022-08-30T20:24:23.951Z,41.96
2022-08-30T20:25:51.766Z,56.36
2022-08-30T20:28:20.541Z,56.54
2022-08-30T20:30:49.037Z,56.62
2022-08-30T20:33:18.142Z,57.00
2022-08-30T20:35:49.575Z,57.27
2022-08-30T20:38:21.710Z,57.57
2022-08-30T20:40:52.778Z,57.56
2022-08-30T20:43:23.228Z,58.41
2022-08-30T20:45:52.558Z,58.41
2022-08-30T20:48:20.899Z,58.82
2022-08-30T20:50:50.775Z,59.06
2022-08-30T20:53:19.141Z,59.52
2022-08-30T20:55:49.072Z,59.29
2022-08-30T20:58:18.723Z,59.51
2022-08-30T21:00:52.007Z,59.40
2022-08-30T21:03:26.505Z,59.79
2022-08-30T21:05:58.061Z,59.83
2022-08-30T21:08:26.822Z,60.06
2022-08-30T21:10:55.682Z,60.17
2022-08-30T21:13:24.149Z,60.14
2022-08-30T21:15:54.753Z,60.25
2022-08-30T21:18:25.829Z,60.33
2022-08-30T21:20:54.160Z,60.46
2022-08-30T21:23:24.235Z,60.73
2022-08-30T21:25:52.615Z,60.95
2022-08-30T21:28:21.310Z,61.02
2022-08-30T21:30:49.674Z,61.19
2022-08-30T21:33:17.926Z,61.50
2022-08-30T21:36:03.652Z,61.75
2022-08-30T21:38:33.246Z,61.86
2022-08-30T21:41:01.526Z,62.04
2022-08-30T21:43:29.971Z,62.06
2022-08-30T21:45:58.277Z,62.17
2022-08-30T21:48:26.602Z,62.59
2022-08-30T21:50:55.325Z,62.84
2022-08-30T21:53:23.671Z,63.35
2022-08-30T21:55:53.469Z,63.24
2022-08-30T21:58:22.011Z,63.32
2022-08-30T22:00:50.356Z,63.65
2022-08-30T22:03:18.719Z,63.86
2022-08-30T22:05:53.115Z,64.23
2022-08-30T22:08:21.379Z,64.16
2022-08-30T22:10:49.561Z,64.39
2022-08-30T22:13:19.668Z,64.57
2022-08-30T22:15:48.364Z,64.68
2022-08-30T22:18:16.619Z,64.80
2022-08-30T22:20:46.349Z,64.79
2022-08-30T22:23:15.843Z,64.69
2022-08-30T22:25:47.650Z,64.45
2022-08-30T22:28:15.965Z,64.58
2022-08-30T22:30:45.689Z,64.69
2022-08-30T22:33:14.243Z,64.71
2022-08-30T22:35:42.558Z,64.71
2022-08-30T22:38:11.796Z,64.70
2022-08-30T22:40:46.430Z,64.77
2022-08-30T22:43:14.824Z,64.76
2022-08-30T22:45:43.611Z,64.60
2022-08-30T22:48:13.565Z,64.49
2022-08-30T22:50:42.206Z,64.62
2022-08-30T22:53:10.568Z,64.53
2022-08-30T22:55:41.209Z,64.70
2022-08-30T22:58:09.350Z,64.46
2022-08-30T23:00:40.726Z,64.11
2022-08-30T23:03:16.278Z,64.48
2022-08-30T23:05:44.653Z,64.27
2022-08-30T23:08:12.971Z,64.40
2022-08-30T23:10:41.249Z,64.30
2022-08-30T23:13:09.479Z,64.00
2022-08-30T23:15:37.966Z,64.02
2022-08-30T23:18:06.396Z,63.94
2022-08-30T23:20:36.051Z,63.99
2022-08-30T23:23:03.168Z,63.99
2022-08-30T23:25:52.045Z,63.86
2022-08-30T23:28:40.071Z,64.00
2022-08-30T23:31:34.103Z,64.20
2022-08-30T23:34:20.908Z,64.14
2022-08-30T23:37:08.331Z,64.47
2022-08-30T23:39:54.186Z,64.30
2022-08-30T23:42:40.239Z,64.44
2022-08-30T23:45:27.275Z,64.16
2022-08-30T23:48:13.296Z,64.15
2022-08-30T23:50:59.098Z,64.00
2022-08-30T23:53:46.400Z,63.85
2022-08-30T23:56:32.263Z,63.99
2022-08-30T23:59:18.362Z,63.90
